Tiempo atmosférico en la estación meteorológica de Cabo de Gata, Almería (42 m.)



Fecha
DESCASC
Temp. máxima en grados centígrados (hora)
DESCASC
Temp. mínima en grados centígrados (hora)
DESCASC
Temp. media en grados centígrados
DESCASC
Racha de viento máxima en m/sg (hora)
DESCASC
Velocidad máxima media en intervalos de 10 minutos(hora)
DESCASC
Precipitaciones diarias en mm
DESCASC
Precipitaciones de 00:00 a 06:00 en mm
DESCASC
Precipitaciones de 06:00 a 12:00 en mm
DESCASC
Precipitaciones de 12:00 a 18:00 en mm
DESCASC
Precipitaciones de 18:00 a 24:00 en mm
DESCASC
18-01-2018 18.5 (12:40) 14 (08:10) 16.3 19.44 (22:10) 11.67 (21:50) 0 0 0 0 0
17-01-2018 18 (21:30) 12.5 (05:50) 15.3 12.5 (23:10) 8.61 (00:30) 0 0 0 0 0
16-01-2018 16.1 (13:30) 10.7 (03:30) 13.4 10.56 (19:40) 7.78 (20:40) 0 0 0 0 0
15-01-2018 14.4 (12:20) 9.9 (02:40) 12.1 15.56 (15:40) 10.28 (14:10) 0 0 0 0 0
14-01-2018 15.7 (11:00) 11.2 (00:00) 13.4 12.22 (15:50) 7.78 (15:50) 0.6 0 0 0.6 0
13-01-2018 15.7 (13:00) 10.9 (00:00) 13.3 13.61 (18:50) 9.44 (20:20) 0 0 0 0 0
12-01-2018 17.1 (13:40) 10.7 (00:00) 13.9 12.22 (03:40) 6.67 (03:00) 0 0 0 0 0
11-01-2018 18.6 (12:10) 13.2 (00:00) 15.9 23.06 (04:40) 12.5 (17:20) 0 0 0 0 0
10-01-2018 16.6 (12:30) 12.4 (00:00) 14.5 16.11 (22:10) 11.67 (22:10) 2.2 2.2 0 0 0
09-01-2018 14.9 (12:30) 9.4 (00:00) 12.1 13.06 (17:20) 7.78 (17:20) 0 0 0 0 0
08-01-2018 15.3 (13:50) 9.7 (00:00) 12.5 13.61 (03:40) 6.11 (03:50) 0 0 0 0 0
07-01-2018 13.1 (11:10) 9.5 (00:00) 11.3 14.44 (02:50) 10.28 (03:10) 0 0 0 0 0
06-01-2018 15.2 (12:00) 11.9 (00:00) 13.5 21.11 (20:10) 15.28 (20:10) 0 0 0 0 0
05-01-2018 18.3 (13:30) 13.8 (00:00) 16 13.06 (23:40) 8.33 (06:00) 0 0 0 0 0
04-01-2018 17.7 (13:50) 13.4 (06:30) 15.6 11.39 (19:30) 8.06 (19:30) 0 0 0 0 0
03-01-2018 18.9 (13:20) 13.6 (00:00) 16.3 10.56 (17:20) 6.67 (17:20) 0 0 0 0 0
02-01-2018 18.2 (14:00) 12.6 (00:00) 15.4 8.61 (13:20) 6.11 (22:10) 0 0 0 0 0
01-01-2018 19.4 (13:30) 14 (00:00) 16.7 15.83 (02:50) 9.44 (02:30) 0 0 0 0 0
31-12-2017 18.9 (23:30) 12.8 (00:00) 15.8 14.17 (23:20) 9.17 (14:20) 0 0 0 0 0
30-12-2017 17.4 (13:40) 13.1 (00:00) 15.3 8.89 (21:40) 5.28 (21:40) 0 0 0 0 0
29-12-2017 18.3 (13:10) 14 (00:00) 16.1 9.17 (00:10) 6.11 (21:30) 0 0 0 0 0
28-12-2017 18.1 (12:50) 14.3 (00:00) 16.2 13.06 (16:20) 9.72 (09:40) 0 0 0 0 0
27-12-2017 17.9 (17:00) 14.2 (00:00) 16 23.89 (07:10) 15.28 (09:00) 0 0 0 0 0
26-12-2017 17.1 (11:50) 13.1 (00:00) 15.1 17.22 (14:00) 11.11 (23:20) 0 0 0 0 0
25-12-2017 18 (13:30) 11.8 (00:00) 14.9 12.78 (22:10) 9.44 (22:20) 0 0 0 0 0
24-12-2017 17.2 (13:40) 13.3 (00:00) 15.3 13.89 (12:00) 9.72 (12:00) 0 0 0 0 0
23-12-2017 17 (11:40) 12.2 (00:00) 14.6 13.89 (13:00) 10 (15:30) 0 0 0 0 0
22-12-2017 16.9 (12:10) 12.4 (00:00) 14.6 11.67 (18:50) 8.89 (19:50) 0 0 0 0 0
21-12-2017 17.1 (11:30) 12.7 (00:00) 14.9 14.72 (15:50) 9.17 (15:50) 0 0 0 0 0

Gráficas

Temp. máximas Temp. mínimas Temp. medias Precipitaciones Rachas de viento máximas Velocidades máximas media en intervalos de 10 minutos

Datos horarios

Fecha y hora oficial Temperatura (ºC) Velocidad del viento (km/h) Dirección del viento Racha (km/h) Dirección de racha Precipitación (mm) Presión (hPa) Tendencia (hPa) Humedad (%)
2018-01-19 23:00:00 14 20 Noroeste 32 Noroeste 0 -- -- 87
2018-01-19 22:00:00 14 23 Noroeste 32 Noroeste 0 -- -- 86
2018-01-19 21:00:00 14.4 22 Oeste 29 Noroeste 0 -- -- 85
2018-01-19 20:00:00 14.3 19 Oeste 24 Oeste 0 -- -- 84
2018-01-19 19:00:00 14.4 6 Oeste 12 Oeste 0 -- -- 83
2018-01-19 18:00:00 15 3 Sudeste 6 Sudeste 0 -- -- 82
2018-01-19 17:00:00 15.2 0 Calma 6 Este 0 -- -- 81
2018-01-19 16:00:00 15.4 0 Calma 5 Noroeste 0 -- -- 80
2018-01-19 15:00:00 15.3 5 Oeste 20 Oeste 0 -- -- 80
2018-01-19 14:00:00 14.8 8 Oeste 16 Oeste 0 -- -- 80
2018-01-19 13:00:00 14.9 6 Oeste 17 Noroeste 0 -- -- 80
2018-01-19 12:00:00 14.2 8 Norte 20 Noroeste 0 -- -- 80
2018-01-19 11:00:00 13.9 10 Noroeste 17 Noroeste 0.2 -- -- 78
2018-01-19 10:00:00 13.5 5 Norte 19 Norte 0 -- -- 76
2018-01-19 09:00:00 13.7 5 Norte 15 Norte 0 -- -- 75
2018-01-19 08:00:00 13.8 6 Noroeste 20 Nordeste 0 -- -- 75
2018-01-19 07:00:00 13.8 6 Este 15 Este 0 -- -- 74
2018-01-19 06:00:00 13.6 9 Nordeste 36 Noroeste 0.4 -- -- 73
2018-01-19 05:00:00 14.4 3 Este 21 Oeste 0.4 -- -- 71
2018-01-19 04:00:00 15 9 Oeste 38 Nordeste 0 -- -- 67
2018-01-19 03:00:00 14.6 6 Sudeste 18 Nordeste 0 -- -- 70
2018-01-19 02:00:00 14.6 6 Nordeste 26 Nordeste 0 -- -- 72
2018-01-19 01:00:00 14.7 12 Nordeste 48 Nordeste 0 -- -- 74
2018-01-19 00:00:00 14.5 22 Nordeste 50 Nordeste 0 -- -- 75
2018-01-18 23:00:00 14.7 23 Este 70 Nordeste 0 -- -- 74
2018-01-18 22:00:00 14.6 41 Nordeste 69 Nordeste 0 -- -- 74
2018-01-18 21:00:00 14.7 29 Nordeste 49 Nordeste 0 -- -- 74
2018-01-18 20:00:00 14.6 30 Nordeste 65 Nordeste 0 -- -- 73
2018-01-18 19:00:00 14.9 20 Nordeste 53 Nordeste 0 -- -- 71
2018-01-18 18:00:00 15 31 Nordeste 58 Nordeste 0 -- -- 68
2018-01-18 17:00:00 15.1 32 Nordeste 59 Nordeste 0 -- -- 65
2018-01-18 16:00:00 15.4 30 Nordeste 54 Nordeste 0 -- -- 61
2018-01-18 15:00:00 15.9 33 Nordeste 63 Este 0 -- -- 53
2018-01-18 14:00:00 16.9 35 Nordeste 61 Este 0 -- -- 43
2018-01-18 13:00:00 18.3 26 Nordeste 56 Nordeste 0 -- -- 38
2018-01-18 12:00:00 17.8 34 Nordeste 58 Nordeste 0 -- -- 39
2018-01-18 11:00:00 16.6 23 Norte 44 Norte 0 -- -- 43
2018-01-18 10:00:00 15.3 23 Norte 46 Nordeste 0 -- -- 56
2018-01-18 09:00:00 14.6 21 Nordeste 42 Norte 0 -- -- 65
2018-01-18 08:00:00 14.1 18 Nordeste 50 Nordeste 0 -- -- 72
2018-01-18 07:00:00 14.3 23 Norte 49 Nordeste 0 -- -- 72
2018-01-18 06:00:00 14.6 19 Norte 45 Norte 0 -- -- 71
2018-01-18 05:00:00 14.7 23 Nordeste 46 Nordeste 0 -- -- 71
2018-01-18 04:00:00 14.7 19 Nordeste 45 Nordeste 0 -- -- 69
2018-01-18 03:00:00 15.1 23 Nordeste 56 Nordeste 0 -- -- 62
2018-01-18 02:00:00 15.7 22 Nordeste 48 Nordeste 0 -- -- 53
2018-01-18 01:00:00 16.2 16 Nordeste 36 Norte 0 -- -- 48
2018-01-18 00:00:00 16.6 21 Nordeste 45 Nordeste 0 -- -- 48
2018-01-17 23:00:00 17.2 22 Nordeste 41 Nordeste 0 -- -- 45
2018-01-17 22:00:00 17.7 28 Nordeste 42 Nordeste 0 -- -- 44
2018-01-17 21:00:00 17.3 23 Nordeste 40 Nordeste 0 -- -- 59
2018-01-17 20:00:00 14.6 4 Sudeste 21 Norte 0 -- -- 75
2018-01-17 19:00:00 13.6 11 Noroeste 20 Oeste 0 -- -- 80
2018-01-17 18:00:00 14.5 9 Oeste 20 Oeste 0 -- -- 80
2018-01-17 17:00:00 14.9 11 Oeste 18 Oeste 0 -- -- 78
2018-01-17 16:00:00 16.2 10 Oeste 16 Oeste 0 -- -- 74
2018-01-17 15:00:00 15.9 10 Oeste 14 Oeste 0 -- -- 76
2018-01-17 14:00:00 17.5 8 Oeste 12 Oeste 0 -- -- 74
2018-01-17 13:00:00 17.6 7 Oeste 21 Oeste 0 -- -- 78
2018-01-17 12:00:00 16.7 10 Oeste 19 Oeste 0 -- -- 83
2018-01-17 11:00:00 14.7 9 Noroeste 27 Noroeste 0 -- -- 87
2018-01-17 10:00:00 14 12 Oeste 24 Noroeste 0 -- -- 89
2018-01-17 09:00:00 12.8 18 Oeste 35 Oeste 0 -- -- 88
2018-01-17 08:00:00 12.7 22 Noroeste 31 Noroeste 0 -- -- 88
2018-01-17 07:00:00 12.5 22 Oeste 37 Noroeste 0 -- -- 88
2018-01-17 06:00:00 12.5 27 Oeste 40 Noroeste 0 -- -- 88
2018-01-17 05:00:00 12.6 27 Oeste 42 Noroeste 0 -- -- 87
2018-01-17 04:00:00 12.6 28 Oeste 40 Oeste 0 -- -- 87
2018-01-17 03:00:00 12.9 21 Oeste 38 Oeste 0 -- -- 86
2018-01-17 02:00:00 12.7 27 Oeste 41 Noroeste 0 -- -- 85
2018-01-17 01:00:00 12.7 25 Noroeste 41 Noroeste 0 -- -- 83
2018-01-17 00:00:00 13 20 Oeste 36 Noroeste 0 -- -- 82
2018-01-16 23:00:00 13 21 Oeste 36 Noroeste 0 -- -- 79
2018-01-16 22:00:00 13.2 23 Oeste 35 Noroeste 0 -- -- 76
2018-01-16 21:00:00 13.1 23 Oeste 37 Oeste 0 -- -- 74
2018-01-16 20:00:00 13.1 23 Oeste 38 Oeste 0 -- -- 73
2018-01-16 19:00:00 13.3 24 Oeste 36 Oeste 0 -- -- 72
2018-01-16 18:00:00 13.6 25 Oeste 33 Oeste 0 -- -- 70
2018-01-16 17:00:00 14 19 Oeste 30 Oeste 0 -- -- 68
2018-01-16 16:00:00 14.4 15 Oeste 29 Sudoeste 0 -- -- 65
2018-01-16 15:00:00 14.6 11 Oeste 30 Sudoeste 0 -- -- 66
2018-01-16 14:00:00 15.8 12 Oeste 32 Sudoeste 0 -- -- 60
2018-01-16 13:00:00 15.9 15 Oeste 29 Sudoeste 0 -- -- 61
2018-01-16 12:00:00 15.8 15 Oeste 30 Sudoeste 0 -- -- 63
2018-01-16 11:00:00 14.5 15 Oeste 28 Noroeste 0 -- -- 65
2018-01-16 10:00:00 13.2 15 Oeste 30 Noroeste 0 -- -- 69
2018-01-16 09:00:00 11.9 15 Oeste 30 Noroeste 0 -- -- 71
2018-01-16 08:00:00 11 18 Noroeste 31 Oeste 0 -- -- 69
2018-01-16 07:00:00 11 21 Noroeste 29 Noroeste 0 -- -- 70
2018-01-16 06:00:00 11.1 17 Noroeste 30 Noroeste 0 -- -- 71
2018-01-16 05:00:00 11 16 Noroeste 27 Noroeste 0 -- -- 70
2018-01-16 04:00:00 11.1 19 Noroeste 29 Noroeste 0 -- -- 69
2018-01-16 03:00:00 11 17 Noroeste 30 Noroeste 0 -- -- 70
2018-01-16 02:00:00 11.3 15 Noroeste 28 Noroeste 0 -- -- 72
2018-01-16 01:00:00 11.5 16 Noroeste 22 Noroeste 0 -- -- 72
2018-01-16 00:00:00 11.4 8 Noroeste 12 Norte 0 -- -- 71
2018-01-15 23:00:00 11.5 9 Norte 12 Norte 0 -- -- 72
2018-01-15 22:00:00 11.5 9 Norte 13 Norte 0 -- -- 72
2018-01-15 21:00:00 11.7 8 Noroeste 12 Noroeste 0 -- -- 71
2018-01-15 20:00:00 12.2 5 Noroeste 25 Nordeste 0 -- -- 68
2018-01-15 19:00:00 12.7 18 Nordeste 33 Nordeste 0 -- -- 66
2018-01-15 18:00:00 13 18 Este 39 Este 0 -- -- 65
2018-01-15 17:00:00 13.2 29 Este 40 Este 0 -- -- 64
2018-01-15 16:00:00 13.3 23 Nordeste 56 Este 0 -- -- 62
2018-01-15 15:00:00 13.3 33 Este 46 Este 0 -- -- 61
2018-01-15 14:00:00 13.2 36 Este 45 Este 0 -- -- 58
2018-01-15 13:00:00 13.5 31 Este 38 Este 0 -- -- 58
2018-01-15 12:00:00 13.8 14 Norte 35 Nordeste 0 -- -- 52
2018-01-15 11:00:00 12.3 19 Norte 34 Nordeste 0 -- -- 55
2018-01-15 10:00:00 11.8 15 Norte 34 Nordeste 0 -- -- 56
2018-01-15 09:00:00 10.7 11 Norte 29 Norte 0 -- -- 57
2018-01-15 08:00:00 10.5 12 Norte 32 Noroeste 0 -- -- 58
2018-01-15 07:00:00 10.7 16 Norte 35 Nordeste 0 -- -- 59
2018-01-15 06:00:00 10.5 20 Norte 36 Nordeste 0 -- -- 62
2018-01-15 05:00:00 10.3 11 Norte 21 Norte 0 -- -- 64
2018-01-15 04:00:00 9.9 10 Norte 15 Norte 0 -- -- 67
2018-01-15 03:00:00 9.9 11 Norte 21 Norte 0 -- -- 69
2018-01-15 02:00:00 10.4 6 Norte 14 Nordeste 0 -- -- 73
2018-01-15 01:00:00 11.2 7 Nordeste 12 Este 0 -- -- 76
2018-01-15 00:00:00 11.2 6 Norte 18 Noroeste 0 -- -- 77
2018-01-14 23:00:00 11.6 14 Oeste 26 Noroeste 0 -- -- 79
2018-01-14 22:00:00 11.6 17 Oeste 32 Oeste 0 -- -- 80
2018-01-14 21:00:00 11.6 20 Oeste 35 Oeste 0 -- -- 79
2018-01-14 20:00:00 11.5 12 Oeste 26 Oeste 0 -- -- 79
2018-01-14 19:00:00 11.6 17 Oeste 30 Oeste 0 -- -- 78
2018-01-14 18:00:00 11.9 17 Oeste 35 Oeste 0 -- -- 75
2018-01-14 17:00:00 11.9 20 Oeste 42 Oeste 0.6 -- -- 73
2018-01-14 16:00:00 13.3 26 Sudoeste 44 Oeste 0 -- -- 68
2018-01-14 15:00:00 13.8 22 Oeste 33 Oeste 0 -- -- 65
2018-01-14 14:00:00 13.9 10 Oeste 21 Oeste 0 -- -- 63
2018-01-14 13:00:00 14.5 4 Oeste 11 Oeste 0 -- -- 63
2018-01-14 12:00:00 14.5 12 Este 22 Este 0 -- -- 64
2018-01-14 11:00:00 15.7 12 Este 17 Este 0 -- -- 53
2018-01-14 10:00:00 14.9 4 Este 9 Sudeste 0 -- -- 56
2018-01-14 09:00:00 12.3 2 Norte 9 Noroeste 0 -- -- 53
2018-01-14 08:00:00 11.7 6 Noroeste 14 Norte 0 -- -- 51
2018-01-14 07:00:00 12.1 12 Norte 27 Noroeste 0 -- -- 54
2018-01-14 06:00:00 11.5 6 Noroeste 19 Oeste 0 -- -- 63
2018-01-14 05:00:00 11.7 8 Norte 15 Norte 0 -- -- 68
2018-01-14 04:00:00 12 9 Norte 12 Noroeste 0 -- -- 74
2018-01-14 03:00:00 12.4 5 Oeste 15 Oeste 0 -- -- 77
2018-01-14 02:00:00 13.1 11 Oeste 25 Sur 0 -- -- 78
2018-01-14 01:00:00 13.3 17 Sudoeste 33 Oeste 0 -- -- 79
2018-01-14 00:00:00 13.4 15 Oeste 39 Oeste 0 -- -- 81
2018-01-13 23:00:00 13.2 13 Noroeste 32 Oeste 0 -- -- 82
2018-01-13 22:00:00 13.4 23 Oeste 38 Oeste 0 -- -- 81
2018-01-13 21:00:00 13.6 25 Oeste 44 Oeste 0 -- -- 79
2018-01-13 20:00:00 13.6 30 Oeste 45 Oeste 0 -- -- 76
2018-01-13 19:00:00 13.5 33 Oeste 49 Oeste 0 -- -- 75
2018-01-13 18:00:00 13.6 26 Oeste 42 Sudoeste 0 -- -- 74
2018-01-13 17:00:00 13.6 13 Oeste 30 Oeste 0 -- -- 73
2018-01-13 16:00:00 13.8 13 Oeste 34 Sudoeste 0 -- -- 72
2018-01-13 15:00:00 14.2 12 Oeste 31 Oeste 0 -- -- 71
2018-01-13 14:00:00 15.2 8 Sudoeste 14 Sudoeste 0 -- -- 66
2018-01-13 13:00:00 15.7 6 Oeste 22 Noroeste 0 -- -- 64
2018-01-13 12:00:00 14.9 13 Oeste 21 Noroeste 0 -- -- 70
2018-01-13 11:00:00 13.1 9 Oeste 16 Noroeste 0 -- -- 73
2018-01-13 10:00:00 12.1 5 Oeste 12 Noroeste 0 -- -- 74
2018-01-13 09:00:00 11.2 8 Noroeste 13 Norte 0 -- -- 74
2018-01-13 08:00:00 11.1 8 Noroeste 14 Noroeste 0 -- -- 74
2018-01-13 07:00:00 10.9 8 Noroeste 13 Noroeste 0 -- -- 73
2018-01-13 06:00:00 11 7 Noroeste 15 Noroeste 0 -- -- 74
2018-01-13 05:00:00 11 9 Noroeste 15 Noroeste 0 -- -- 73
2018-01-13 04:00:00 11.1 11 Noroeste 18 Noroeste 0 -- -- 73
2018-01-13 03:00:00 10.9 9 Noroeste 14 Noroeste 0 -- -- 72
2018-01-13 02:00:00 11.4 6 Noroeste 13 Oeste 0 -- -- 70
2018-01-13 01:00:00 12.5 6 Oeste 14 Noroeste 0 -- -- 68
2018-01-13 00:00:00 13 4 Oeste 15 Sudoeste 0 -- -- 68
2018-01-12 23:00:00 13 6 Oeste 17 Sudoeste 0 -- -- 68
2018-01-12 22:00:00 13.1 9 Oeste 18 Sudoeste 0 -- -- 67
2018-01-12 21:00:00 13.3 5 Oeste 15 Noroeste 0 -- -- 66
2018-01-12 20:00:00 13.3 8 Oeste 18 Sudoeste 0 -- -- 65
2018-01-12 19:00:00 13.3 7 Sudoeste 17 Oeste 0 -- -- 62
2018-01-12 18:00:00 13.8 7 Oeste 18 Sudoeste 0 -- -- 64
2018-01-12 17:00:00 14.1 7 Oeste 15 Oeste 0 -- -- 62
2018-01-12 16:00:00 15.3 8 Oeste 14 Oeste 0 -- -- 58
2018-01-12 15:00:00 15.2 8 Oeste 16 Oeste 0 -- -- 59
2018-01-12 14:00:00 17.1 10 Oeste 19 Oeste 0 -- -- 52
2018-01-12 13:00:00 16.9 9 Oeste 20 Noroeste 0 -- -- 49
2018-01-12 12:00:00 16.1 13 Oeste 26 Oeste 0 -- -- 49
2018-01-12 11:00:00 14.7 16 Noroeste 27 Noroeste 0 -- -- 47
2018-01-12 10:00:00 13.4 11 Noroeste 30 Noroeste 0 -- -- 40
2018-01-12 09:00:00 12.6 24 Noroeste 38 Noroeste 0 -- -- 39
2018-01-12 08:00:00 10.7 11 Noroeste 26 Noroeste 0 -- -- 42
2018-01-12 07:00:00 11.6 18 Oeste 32 Noroeste 0 -- -- 42
2018-01-12 06:00:00 10.8 8 Noroeste 17 Oeste 0 -- -- 40
2018-01-12 05:00:00 12.7 14 Norte 20 Norte 0 -- -- 33
2018-01-12 04:00:00 13.5 16 Noroeste 44 Noroeste 0 -- -- 33
2018-01-12 03:00:00 13.5 24 Noroeste 38 Noroeste 0 -- -- 33
2018-01-12 02:00:00 13.1 14 Norte 21 Norte 0 -- -- 36
2018-01-12 01:00:00 13.2 16 Norte 21 Norte 0 -- -- 37
2018-01-12 00:00:00 13.4 16 Norte 32 Norte 0 -- -- 37
2018-01-11 23:00:00 13.9 25 Noroeste 41 Noroeste 0 -- -- 36
2018-01-11 22:00:00 13.9 19 Noroeste 45 Oeste 0 -- -- 37
2018-01-11 21:00:00 14.6 17 Oeste 46 Oeste 0 -- -- 41
2018-01-11 20:00:00 14.2 27 Noroeste 76 Norte 0 -- -- 43
2018-01-11 19:00:00 14.6 26 Noroeste 66 Norte 0 -- -- 39
2018-01-11 18:00:00 15.5 27 Norte 76 Norte 0 -- -- 40
2018-01-11 17:00:00 15.5 15 Nordeste 33 Norte 0 -- -- 48
2018-01-11 16:00:00 15.9 9 Sudoeste 25 Oeste 0 -- -- 63
2018-01-11 15:00:00 15.9 17 Oeste 27 Sudoeste 0 -- -- 63
2018-01-11 14:00:00 17.2 5 Sudeste 17 Sudeste 0 -- -- 56
2018-01-11 13:00:00 17.6 6 Sur 19 Sudeste 0 -- -- 53
2018-01-11 12:00:00 18.4 10 Oeste 37 Norte 0 -- -- 35
2018-01-11 11:00:00 16.8 8 Norte 26 Norte 0 -- -- 29
2018-01-11 10:00:00 16.2 8 Este 11 Este 0 -- -- 51
2018-01-11 09:00:00 14.8 3 Este 16 Norte 0 -- -- 54
2018-01-11 08:00:00 14.3 14 Norte 49 Norte 0 -- -- 33
2018-01-11 07:00:00 14.6 27 Noroeste 46 Noroeste 0 -- -- 35
2018-01-11 06:00:00 14.3 15 Oeste 72 Noroeste 0 -- -- 44
2018-01-11 05:00:00 15.4 42 Norte 83 Norte 0 -- -- 46
2018-01-11 04:00:00 13.4 6 Noroeste 27 Oeste 0 -- -- 75
2018-01-11 03:00:00 13.9 18 Oeste 39 Oeste 0 -- -- 81
2018-01-11 02:00:00 14.4 26 Oeste 54 Oeste 0 -- -- 82
2018-01-11 01:00:00 14.4 40 Oeste 58 Oeste 0 -- -- 82
2018-01-11 00:00:00 14.6 37 Oeste 53 Oeste 0 -- -- 81
2018-01-10 23:00:00 14.7 29 Oeste 58 Oeste 0 -- -- 80
2018-01-10 22:00:00 14.9 34 Oeste 57 Sudoeste 0 -- -- 76
2018-01-10 21:00:00 14.9 28 Oeste 46 Sudoeste 0 -- -- 74
2018-01-10 20:00:00 14.8 22 Oeste 37 Oeste 0 -- -- 74
2018-01-10 19:00:00 14.6 15 Noroeste 25 Noroeste 0 -- -- 78
2018-01-10 18:00:00 15.1 9 Oeste 22 Sudoeste 0 -- -- 78
2018-01-10 17:00:00 15.4 9 Sudeste 28 Oeste 0 -- -- 78
2018-01-10 16:00:00 15.4 16 Oeste 29 Oeste 0 -- -- 77
2018-01-10 15:00:00 15.6 9 Oeste 13 Oeste 0 -- -- 77
2018-01-10 14:00:00 16.3 6 Este 14 Sudoeste 0 -- -- 77
2018-01-10 13:00:00 16.3 7 Sudoeste 31 Oeste 0 -- -- 79
2018-01-10 12:00:00 16.2 19 Oeste 33 Oeste 0 -- -- 81
2018-01-10 11:00:00 15.2 17 Oeste 34 Sudoeste 0 -- -- 83
2018-01-10 10:00:00 14.3 20 Oeste 38 Oeste 0 -- -- 85
2018-01-10 09:00:00 13.1 24 Oeste 39 Oeste 0 -- -- 85
2018-01-10 08:00:00 13 16 Oeste 32 Sudoeste 0 -- -- 83
2018-01-10 07:00:00 13.1 13 Oeste 27 Sudoeste 0 -- -- 82
2018-01-10 06:00:00 13 9 Sur 27 Noroeste 0.2 -- -- 82
2018-01-10 05:00:00 13.1 8 Sur 23 Oeste 0 -- -- 82
2018-01-10 04:00:00 12.5 9 Sudeste 19 Sur 0.4 -- -- 83
2018-01-10 03:00:00 12.4 10 Sudeste 23 Sudoeste 0.2 -- -- 83
2018-01-10 02:00:00 12.9 9 Sudeste 24 Sudoeste 1.2 -- -- 82
2018-01-10 01:00:00 13.3 9 Sudoeste 28 Sudoeste 0.2 -- -- 78
2018-01-10 00:00:00 13.7 12 Sudoeste 30 Sudoeste 0 -- -- 76
2018-01-09 23:00:00 13.7 10 Sur 27 Oeste 0 -- -- 76
2018-01-09 22:00:00 13.6 8 Sudoeste 28 Sur 0 -- -- 75
2018-01-09 21:00:00 13.5 12 Sudoeste 30 Oeste 0 -- -- 74
2018-01-09 20:00:00 13.4 9 Oeste 38 Sudoeste 0 -- -- 74
2018-01-09 19:00:00 13.3 18 Oeste 41 Sudoeste 0 -- -- 73
2018-01-09 18:00:00 13.1 25 Oeste 47 Sudoeste 0 -- -- 72
2018-01-09 17:00:00 13.4 27 Oeste 45 Oeste 0 -- -- 68
2018-01-09 16:00:00 13.2 21 Sudoeste 37 Oeste 0 -- -- 67
2018-01-09 15:00:00 13.7 19 Oeste 35 Oeste 0 -- -- 64
2018-01-09 14:00:00 14.7 16 Sudoeste 28 Sudoeste 0 -- -- 63
2018-01-09 13:00:00 14.6 10 Oeste 24 Oeste 0 -- -- 61
2018-01-09 12:00:00 14.4 11 Oeste 26 Oeste 0 -- -- 58
2018-01-09 11:00:00 13.3 13 Oeste 27 Noroeste 0 -- -- 62
2018-01-09 10:00:00 12.1 16 Noroeste 27 Oeste 0 -- -- 65
2018-01-09 09:00:00 10.4 13 Noroeste 23 Noroeste 0 -- -- 66
2018-01-09 08:00:00 9.4 9 Noroeste 14 Oeste 0 -- -- 66
2018-01-09 07:00:00 10 11 Noroeste 24 Noroeste 0 -- -- 67
2018-01-09 06:00:00 10.1 15 Noroeste 26 Noroeste 0 -- -- 68
2018-01-09 05:00:00 10.2 14 Noroeste 22 Noroeste 0 -- -- 69
2018-01-09 04:00:00 10.4 13 Noroeste 24 Noroeste 0 -- -- 66
2018-01-09 03:00:00 10.4 13 Noroeste 26 Noroeste 0 -- -- 63
2018-01-09 02:00:00 10.3 6 Norte 12 Noroeste 0 -- -- 69
2018-01-09 01:00:00 10.7 8 Norte 14 Noroeste 0 -- -- 69
2018-01-09 00:00:00 10.6 8 Norte 13 Noroeste 0 -- -- 69
2018-01-08 23:00:00 10.8 8 Norte 14 Norte 0 -- -- 70
2018-01-08 22:00:00 10.8 6 Norte 13 Noroeste 0 -- -- 70
2018-01-08 21:00:00 11.4 7 Norte 11 Noroeste 0 -- -- 69
2018-01-08 20:00:00 11.4 8 Norte 18 Nordeste 0 -- -- 68
2018-01-08 19:00:00 11.7 12 Nordeste 19 Nordeste 0 -- -- 68
2018-01-08 18:00:00 12.1 11 Este 23 Este 0 -- -- 66
2018-01-08 17:00:00 12.2 13 Este 21 Este 0 -- -- 65
2018-01-08 16:00:00 12.8 8 Este 13 Este 0 -- -- 60
2018-01-08 15:00:00 13.1 0 Calma 6 Sudoeste 0 -- -- 57
2018-01-08 14:00:00 15.3 3 Sur 12 Oeste 0 -- -- 52
2018-01-08 13:00:00 14 6 Oeste 12 Noroeste 0 -- -- 59
2018-01-08 12:00:00 13.7 7 Oeste 19 Oeste 0 -- -- 59
2018-01-08 11:00:00 12.1 13 Noroeste 26 Noroeste 0 -- -- 61
2018-01-08 10:00:00 11.2 8 Noroeste 22 Noroeste 0 -- -- 66
2018-01-08 09:00:00 9.9 10 Noroeste 22 Noroeste 0 -- -- 69
2018-01-08 08:00:00 10.1 10 Noroeste 22 Noroeste 0 -- -- 71
2018-01-08 07:00:00 10.2 12 Noroeste 24 Oeste 0 -- -- 72
2018-01-08 06:00:00 10.7 8 Oeste 24 Oeste 0 -- -- 72
2018-01-08 05:00:00 10.4 6 Oeste 27 Oeste 0 -- -- 72
2018-01-08 04:00:00 10.3 17 Noroeste 49 Noroeste 0 -- -- 70
2018-01-08 03:00:00 11.1 8 Oeste 29 Noroeste 0 -- -- 68
2018-01-08 02:00:00 11.1 12 Oeste 28 Sur 0 -- -- 68
2018-01-08 01:00:00 11 8 Oeste 29 Sudoeste 0 -- -- 71
2018-01-08 00:00:00 10.9 8 Oeste 27 Sur 0 -- -- 72
2018-01-07 23:00:00 10.9 12 Sudeste 39 Sudeste 0 -- -- 72
2018-01-07 22:00:00 11.6 10 Sur 26 Sudoeste 0 -- -- 62
2018-01-07 21:00:00 11.2 5 Sur 25 Oeste 0 -- -- 60
2018-01-07 20:00:00 11.2 10 Oeste 26 Sudoeste 0 -- -- 59
2018-01-07 19:00:00 11.3 12 Oeste 27 Sudoeste 0 -- -- 59
2018-01-07 18:00:00 11.6 9 Sudoeste 26 Oeste 0 -- -- 58
2018-01-07 17:00:00 11.8 13 Sudeste 30 Sudeste 0 -- -- 65
2018-01-07 16:00:00 12.4 11 Oeste 30 Oeste 0 -- -- 58
2018-01-07 15:00:00 12.4 13 Sur 33 Oeste 0 -- -- 54
2018-01-07 14:00:00 12.4 11 Sur 27 Oeste 0 -- -- 57
2018-01-07 13:00:00 12.5 15 Sudoeste 34 Oeste 0 -- -- 55
2018-01-07 12:00:00 12.8 17 Oeste 40 Oeste 0 -- -- 54
2018-01-07 11:00:00 13 28 Oeste 48 Oeste 0 -- -- 55
2018-01-07 10:00:00 11.6 29 Oeste 45 Oeste 0 -- -- 55
2018-01-07 09:00:00 11 19 Oeste 33 Oeste 0 -- -- 56
2018-01-07 08:00:00 9.6 4 Sudoeste 10 Sudoeste 0 -- -- 56
2018-01-07 07:00:00 9.8 0 Calma 17 Norte 0 -- -- 49
2018-01-07 06:00:00 9.9 11 Norte 23 Oeste 0 -- -- 54
2018-01-07 05:00:00 10.4 8 Oeste 38 Oeste 0 -- -- 55
2018-01-07 04:00:00 11.4 31 Oeste 51 Oeste 0 -- -- 61
2018-01-07 03:00:00 11.5 35 Oeste 52 Noroeste 0 -- -- 61
2018-01-07 02:00:00 10.9 12 Oeste 32 Oeste 0 -- -- 57
2018-01-07 01:00:00 11.1 13 Oeste 23 Noroeste 0 -- -- 54
2018-01-07 00:00:00 11.9 16 Oeste 53 Sudoeste 0 -- -- 61
2018-01-06 23:00:00 12.3 32 Oeste 57 Sur 0 -- -- 62
2018-01-06 22:00:00 12.5 39 Oeste 65 Oeste 0 -- -- 63
2018-01-06 21:00:00 12.7 38 Oeste 76 Oeste 0 -- -- 64
2018-01-06 20:00:00 12.7 41 Oeste 68 Oeste 0 -- -- 66
2018-01-06 19:00:00 12.9 31 Oeste 62 Sudoeste 0 -- -- 67
2018-01-06 18:00:00 12.9 35 Sudoeste 61 Sudoeste 0 -- -- 69
2018-01-06 17:00:00 12.7 38 Sudoeste 69 Oeste 0 -- -- 72
2018-01-06 16:00:00 12.4 28 Oeste 53 Sudoeste 0 -- -- 76
2018-01-06 15:00:00 13.1 14 Sudoeste 36 Sur 0 -- -- 76
2018-01-06 14:00:00 14.3 16 Sudeste 49 Oeste 0 -- -- 76
2018-01-06 13:00:00 14.8 27 Oeste 46 Sudoeste 0 -- -- 79
2018-01-06 12:00:00 15.2 9 Este 21 Este 0 -- -- 86
2018-01-06 11:00:00 14.6 13 Este 20 Este 0 -- -- 85
2018-01-06 10:00:00 14.4 8 Este 19 Este 0 -- -- 84
2018-01-06 09:00:00 14.4 8 Sudeste 17 Este 0 -- -- 84
2018-01-06 08:00:00 14.5 10 Sudeste 19 Sudeste 0 -- -- 84
2018-01-06 07:00:00 14.5 10 Sudeste 19 Sur 0 -- -- 83
2018-01-06 06:00:00 14.4 12 Sur 26 Oeste 0 -- -- 82
2018-01-06 05:00:00 14.3 14 Oeste 22 Oeste 0 -- -- 81
2018-01-06 04:00:00 14.5 8 Sur 26 Oeste 0 -- -- 81
2018-01-06 03:00:00 14.4 9 Sur 28 Oeste 0 -- -- 81
2018-01-06 02:00:00 14.3 14 Oeste 40 Oeste 0 -- -- 81
2018-01-06 01:00:00 14.6 22 Oeste 45 Sudoeste 0 -- -- 80
2018-01-06 00:00:00 14.7 24 Oeste 47 Oeste 0 -- -- 82
2018-01-05 23:00:00 14.5 16 Oeste 37 Sudoeste 0 -- -- 84
2018-01-05 22:00:00 14.7 20 Oeste 37 Sudoeste 0 -- -- 84
2018-01-05 21:00:00 14.7 12 Oeste 41 Sudoeste 0 -- -- 84
2018-01-05 20:00:00 15 15 Oeste 35 Oeste 0 -- -- 82
2018-01-05 19:00:00 15 17 Oeste 33 Oeste 0 -- -- 81
2018-01-05 18:00:00 15.3 21 Oeste 30 Oeste 0 -- -- 79
2018-01-05 17:00:00 15.7 18 Oeste 37 Oeste 0 -- -- 77
2018-01-05 16:00:00 16.1 28 Oeste 40 Sudoeste 0 -- -- 75
2018-01-05 15:00:00 16.4 24 Oeste 36 Oeste 0 -- -- 75
2018-01-05 14:00:00 17.7 23 Oeste 32 Oeste 0 -- -- 72
2018-01-05 13:00:00 17.9 14 Oeste 24 Oeste 0 -- -- 77
2018-01-05 12:00:00 17.5 12 Oeste 22 Sudoeste 0 -- -- 85
2018-01-05 11:00:00 16.3 14 Oeste 23 Oeste 0 -- -- 88
2018-01-05 10:00:00 15.2 12 Oeste 25 Noroeste 0 -- -- 90
2018-01-05 09:00:00 14.1 12 Oeste 24 Oeste 0 -- -- 91
2018-01-05 08:00:00 14.1 18 Oeste 30 Oeste 0 -- -- 91
2018-01-05 07:00:00 13.8 13 Oeste 37 Oeste 0 -- -- 91
2018-01-05 06:00:00 13.8 30 Noroeste 39 Noroeste 0 -- -- 90
2018-01-05 05:00:00 14.1 16 Oeste 27 Noroeste 0 -- -- 90
2018-01-05 04:00:00 14.2 19 Oeste 30 Oeste 0 -- -- 90
2018-01-05 03:00:00 14.6 12 Oeste 21 Sudoeste 0 -- -- 90
2018-01-05 02:00:00 14.2 10 Oeste 25 Oeste 0 -- -- 89
2018-01-05 01:00:00 14.5 17 Oeste 26 Noroeste 0 -- -- 89
2018-01-05 00:00:00 14.7 10 Oeste 19 Oeste 0 -- -- 88
2018-01-04 23:00:00 14.7 10 Oeste 20 Oeste 0 -- -- 88
2018-01-04 22:00:00 15.1 12 Oeste 30 Oeste 0 -- -- 87
2018-01-04 21:00:00 15.1 19 Oeste 39 Noroeste 0 -- -- 86
2018-01-04 20:00:00 15 26 Oeste 41 Oeste 0 -- -- 86
2018-01-04 19:00:00 15.1 26 Oeste 39 Noroeste 0 -- -- 85
2018-01-04 18:00:00 15.3 21 Oeste 33 Noroeste 0 -- -- 83
2018-01-04 17:00:00 15.8 13 Oeste 27 Oeste 0 -- -- 82
2018-01-04 16:00:00 16.1 15 Oeste 30 Oeste 0 -- -- 80
2018-01-04 15:00:00 16.5 15 Oeste 25 Oeste 0 -- -- 81
2018-01-04 14:00:00 17.7 15 Oeste 33 Oeste 0 -- -- 78
2018-01-04 13:00:00 17.4 21 Oeste 36 Noroeste 0 -- -- 82
2018-01-04 12:00:00 16.7 18 Oeste 39 Noroeste 0 -- -- 84
2018-01-04 11:00:00 15.3 19 Oeste 31 Oeste 0 -- -- 87
2018-01-04 10:00:00 15.9 17 Oeste 32 Noroeste 0 -- -- 88
2018-01-04 09:00:00 14.9 15 Oeste 23 Oeste 0 -- -- 88
2018-01-04 08:00:00 14.4 16 Oeste 24 Noroeste 0 -- -- 88
2018-01-04 07:00:00 13.8 10 Noroeste 14 Noroeste 0 -- -- 87
2018-01-04 06:00:00 14.1 8 Oeste 18 Noroeste 0 -- -- 88
2018-01-04 05:00:00 14.5 4 Norte 8 Norte 0 -- -- 88
2018-01-04 04:00:00 14.3 8 Oeste 30 Oeste 0 -- -- 88
2018-01-04 03:00:00 14.7 15 Oeste 28 Oeste 0 -- -- 88
2018-01-04 02:00:00 14.7 19 Oeste 30 Noroeste 0 -- -- 88
2018-01-04 01:00:00 14.9 21 Oeste 35 Oeste 0 -- -- 88
2018-01-04 00:00:00 15 15 Oeste 27 Oeste 0 -- -- 88
2018-01-03 23:00:00 14.5 8 Oeste 25 Noroeste 0 -- -- 87
2018-01-03 22:00:00 14.9 13 Oeste 26 Noroeste 0 -- -- 86
2018-01-03 21:00:00 15.2 9 Oeste 25 Noroeste 0 -- -- 85
2018-01-03 20:00:00 15.4 18 Oeste 35 Noroeste 0 -- -- 83
2018-01-03 19:00:00 15.5 20 Oeste 36 Oeste 0 -- -- 82
2018-01-03 18:00:00 15.7 19 Oeste 38 Oeste 0 -- -- 80
2018-01-03 17:00:00 16 18 Oeste 30 Oeste 0 -- -- 77
2018-01-03 16:00:00 16.7 17 Oeste 35 Oeste 0 -- -- 74
2018-01-03 15:00:00 17 22 Oeste 37 Noroeste 0 -- -- 72
2018-01-03 14:00:00 18.4 17 Oeste 32 Noroeste 0 -- -- 70
2018-01-03 13:00:00 18.8 11 Oeste 24 Noroeste 0 -- -- 70
2018-01-03 12:00:00 18.6 14 Oeste 25 Noroeste 0 -- -- 63
2018-01-03 11:00:00 17.8 16 Oeste 29 Noroeste 0 -- -- 61
2018-01-03 10:00:00 17.7 17 Oeste 30 Noroeste 0 -- -- 53
2018-01-03 09:00:00 14 15 Oeste 26 Oeste 0 -- -- 71
2018-01-03 08:00:00 14.4 6 Oeste 13 Oeste 0 -- -- 67
2018-01-03 07:00:00 15.7 12 Este 21 Este 0 -- -- 64
2018-01-03 06:00:00 17.3 9 Noroeste 14 Noroeste 0 -- -- 42
2018-01-03 05:00:00 17.1 10 Noroeste 17 Noroeste 0 -- -- 41
2018-01-03 04:00:00 14.9 7 Noroeste 19 Noroeste 0 -- -- 58
2018-01-03 03:00:00 14.5 12 Noroeste 18 Noroeste 0 -- -- 64
2018-01-03 02:00:00 14.4 6 Noroeste 14 Noroeste 0 -- -- 67
2018-01-03 01:00:00 14.1 4 Noroeste 17 Norte 0 -- -- 65
2018-01-03 00:00:00 14.1 4 Nordeste 18 Este 0 -- -- 70
2018-01-02 23:00:00 14.5 14 Este 28 Este 0 -- -- 75
2018-01-02 22:00:00 14.4 21 Este 28 Este 0 -- -- 77
2018-01-02 21:00:00 14.4 3 Este 19 Este 0 -- -- 76
2018-01-02 20:00:00 14.6 3 Este 16 Este 0 -- -- 77
2018-01-02 19:00:00 14.9 3 Este 13 Este 0 -- -- 78
2018-01-02 18:00:00 15.2 5 Este 12 Este 0 -- -- 79
2018-01-02 17:00:00 15.5 10 Este 14 Este 0 -- -- 76
2018-01-02 16:00:00 16.9 4 Sudeste 6 Sudeste 0 -- -- 71
2018-01-02 15:00:00 17 3 Sudoeste 24 Oeste 0 -- -- 66
2018-01-02 14:00:00 18.2 10 Oeste 31 Oeste 0 -- -- 62
2018-01-02 13:00:00 17.6 17 Oeste 29 Noroeste 0 -- -- 62
2018-01-02 12:00:00 16.9 18 Oeste 27 Oeste 0 -- -- 71
2018-01-02 11:00:00 18 2 Sudoeste 7 Este 0 -- -- 72
2018-01-02 10:00:00 14.8 3 Noroeste 10 Noroeste 0 -- -- 70
2018-01-02 09:00:00 14.4 8 Nordeste 13 Este 0 -- -- 72
2018-01-02 08:00:00 13.7 12 Este 20 Este 0 -- -- 68
2018-01-02 07:00:00 13.4 6 Este 15 Este 0 -- -- 70
2018-01-02 06:00:00 12.6 9 Noroeste 20 Norte 0 -- -- 73
2018-01-02 05:00:00 13.8 6 Este 12 Norte 0 -- -- 80
2018-01-02 04:00:00 14.2 3 Este 18 Este 0 -- -- 82
2018-01-02 03:00:00 14.1 6 Norte 14 Este 0 -- -- 83
2018-01-02 02:00:00 14.2 5 Nordeste 9 Norte 0 -- -- 83
2018-01-02 01:00:00 13.8 7 Noroeste 16 Noroeste 0 -- -- 82
2018-01-02 00:00:00 14.2 4 Noroeste 22 Noroeste 0 -- -- 82
2018-01-01 23:00:00 14 12 Oeste 19 Noroeste 0 -- -- 81
2018-01-01 22:00:00 14.3 12 Oeste 27 Oeste 0 -- -- 80
2018-01-01 21:00:00 14.5 17 Noroeste 26 Oeste 0 -- -- 77
2018-01-01 20:00:00 14.8 8 Oeste 15 Oeste 0 -- -- 75
2018-01-01 19:00:00 15.1 7 Oeste 12 Oeste 0 -- -- 73
2018-01-01 18:00:00 15.5 4 Sudoeste 15 Oeste 0 -- -- 72
2018-01-01 17:00:00 16.1 5 Sudeste 10 Sudoeste 0 -- -- 70
2018-01-01 16:00:00 16.7 6 Oeste 14 Oeste 0 -- -- 64
2018-01-01 15:00:00 16.8 11 Oeste 23 Noroeste 0 -- -- 62
2018-01-01 14:00:00 18.4 17 Oeste 29 Noroeste 0 -- -- 57
2018-01-01 13:00:00 19.3 12 Oeste 18 Oeste 0 -- -- 55
2018-01-01 12:00:00 18.8 7 Oeste 14 Oeste 0 -- -- 62
2018-01-01 11:00:00 17.4 6 Oeste 14 Oeste 0 -- -- 71
2018-01-01 10:00:00 17 3 Sudoeste 8 Oeste 0 -- -- 73
2018-01-01 09:00:00 15.7 5 Este 23 Este 0 -- -- 75
2018-01-01 08:00:00 15.7 19 Este 36 Este 0 -- -- 72
2018-01-01 07:00:00 15.5 20 Este 34 Este 0 -- -- 51
2018-01-01 06:00:00 15.8 23 Este 41 Nordeste 0 -- -- 63
2018-01-01 05:00:00 17.3 31 Nordeste 43 Nordeste 0 -- -- 55
2018-01-01 04:00:00 17.1 10 Nordeste 42 Norte 0 -- -- 53
2018-01-01 03:00:00 17.6 17 Noroeste 57 Noroeste 0 -- -- 39
2018-01-01 02:00:00 16.2 11 Oeste 19 Oeste 0 -- -- 69
2018-01-01 01:00:00 17.2 6 Sudeste 34 Oeste 0 -- -- 64
2018-01-01 00:00:00 18.2 13 Oeste 51 Noroeste 0 -- -- 58
2017-12-31 23:00:00 16.1 7 Oeste 18 Oeste 0 -- -- 75
2017-12-31 22:00:00 15.9 8 Sur 36 Oeste 0 -- -- 78
2017-12-31 21:00:00 15.8 19 Sudoeste 34 Oeste 0 -- -- 80
2017-12-31 20:00:00 15.5 19 Oeste 39 Noroeste 0 -- -- 82
2017-12-31 19:00:00 15.6 25 Oeste 47 Oeste 0 -- -- 82
2017-12-31 18:00:00 15.9 22 Oeste 44 Oeste 0 -- -- 83
2017-12-31 17:00:00 16 28 Oeste 43 Sudoeste 0 -- -- 84
2017-12-31 16:00:00 15.9 22 Oeste 42 Sudoeste 0 -- -- 85
2017-12-31 15:00:00 16.1 24 Sudoeste 47 Oeste 0 -- -- 85
2017-12-31 14:00:00 16.8 21 Oeste 39 Oeste 0 -- -- 87
2017-12-31 13:00:00 16.1 24 Oeste 36 Noroeste 0 -- -- 89
2017-12-31 12:00:00 16.2 19 Oeste 31 Oeste 0 -- -- 91
2017-12-31 11:00:00 15.6 15 Oeste 33 Sudoeste 0 -- -- 92
2017-12-31 10:00:00 14.5 23 Oeste 30 Oeste 0 -- -- 92
2017-12-31 09:00:00 14.1 17 Oeste 29 Oeste 0 -- -- 92
2017-12-31 08:00:00 13.9 14 Oeste 39 Noroeste 0 -- -- 92
2017-12-31 07:00:00 13.6 18 Oeste 34 Oeste 0 -- -- 92
2017-12-31 06:00:00 13.1 22 Oeste 32 Noroeste 0 -- -- 92
2017-12-31 05:00:00 13 16 Oeste 42 Noroeste 0 -- -- 92
2017-12-31 04:00:00 13.2 24 Oeste 35 Oeste 0 -- -- 91
2017-12-31 03:00:00 13 16 Oeste 29 Oeste 0 -- -- 91
2017-12-31 02:00:00 12.8 17 Oeste 31 Noroeste 0 -- -- 90
2017-12-31 01:00:00 13.1 17 Oeste 28 Oeste 0 -- -- 90